sensor_id;sensor_type;location;lat;lon;timestamp;temperature;humidity
15656;DHT22;7928;43.614;1.456;2023-11-21T00:01:00;11.10;99.90
15656;DHT22;7928;43.614;1.456;2023-11-21T00:03:29;11.10;99.90
15656;DHT22;7928;43.614;1.456;2023-11-21T00:05:56;11.10;99.90
15656;DHT22;7928;43.614;1.456;2023-11-21T00:08:24;11.10;99.90
15656;DHT22;7928;43.614;1.456;2023-11-21T00:10:51;11.10;99.90
15656;DHT22;7928;43.614;1.456;2023-11-21T00:13:18;11.20;99.90
15656;DHT22;7928;43.614;1.456;2023-11-21T00:15:45;11.20;99.90
15656;DHT22;7928;43.614;1.456;2023-11-21T00:18:12;11.20;99.90
15656;DHT22;7928;43.614;1.456;2023-11-21T00:20:39;11.20;99.90
15656;DHT22;7928;43.614;1.456;2023-11-21T00:23:06;11.20;99.90
15656;DHT22;7928;43.614;1.456;2023-11-21T00:25:36;11.20;99.90
15656;DHT22;7928;43.614;1.456;2023-11-21T00:28:03;11.20;99.90
15656;DHT22;7928;43.614;1.456;2023-11-21T00:30:31;11.20;99.90
15656;DHT22;7928;43.614;1.456;2023-11-21T00:32:58;11.20;99.90
15656;DHT22;7928;43.614;1.456;2023-11-21T00:35:25;11.20;99.90
15656;DHT22;7928;43.614;1.456;2023-11-21T00:37:52;11.20;99.90
15656;DHT22;7928;43.614;1.456;2023-11-21T00:40:19;11.20;99.90
15656;DHT22;7928;43.614;1.456;2023-11-21T00:42:48;11.20;99.90
15656;DHT22;7928;43.614;1.456;2023-11-21T00:45:15;11.20;99.90
15656;DHT22;7928;43.614;1.456;2023-11-21T00:47:41;11.10;99.90
15656;DHT22;7928;43.614;1.456;2023-11-21T00:50:09;11.10;99.90
15656;DHT22;7928;43.614;1.456;2023-11-21T00:52:36;11.10;99.90
15656;DHT22;7928;43.614;1.456;2023-11-21T00:55:03;11.20;99.90
15656;DHT22;7928;43.614;1.456;2023-11-21T00:57:30;11.10;99.90
15656;DHT22;7928;43.614;1.456;2023-11-21T00:59:58;11.10;99.90
15656;DHT22;7928;43.614;1.456;2023-11-21T01:02:25;11.10;99.90
15656;DHT22;7928;43.614;1.456;2023-11-21T01:04:52;11.10;99.90
15656;DHT22;7928;43.614;1.456;2023-11-21T01:07:19;11.10;99.90
15656;DHT22;7928;43.614;1.456;2023-11-21T01:09:47;11.10;99.90
15656;DHT22;7928;43.614;1.456;2023-11-21T01:12:14;11.20;99.90
15656;DHT22;7928;43.614;1.456;2023-11-21T01:14:43;11.20;99.90
15656;DHT22;7928;43.614;1.456;2023-11-21T01:17:12;11.20;99.90
15656;DHT22;7928;43.614;1.456;2023-11-21T01:19:39;11.20;99.90
15656;DHT22;7928;43.614;1.456;2023-11-21T01:22:05;11.20;99.90
15656;DHT22;7928;43.614;1.456;2023-11-21T01:24:32;11.20;99.90
15656;DHT22;7928;43.614;1.456;2023-11-21T01:26:59;11.20;99.90
15656;DHT22;7928;43.614;1.456;2023-11-21T01:29:26;11.20;99.90
15656;DHT22;7928;43.614;1.456;2023-11-21T01:31:53;11.20;99.90
15656;DHT22;7928;43.614;1.456;2023-11-21T01:34:21;11.10;99.90
15656;DHT22;7928;43.614;1.456;2023-11-21T01:36:49;11.10;99.90
15656;DHT22;7928;43.614;1.456;2023-11-21T01:39:15;11.10;99.90
15656;DHT22;7928;43.614;1.456;2023-11-21T01:41:49;11.10;99.90
15656;DHT22;7928;43.614;1.456;2023-11-21T01:44:16;11.10;99.90
15656;DHT22;7928;43.614;1.456;2023-11-21T01:46:45;11.10;99.90
15656;DHT22;7928;43.614;1.456;2023-11-21T01:49:12;11.10;99.90
15656;DHT22;7928;43.614;1.456;2023-11-21T01:51:43;11.10;99.90
15656;DHT22;7928;43.614;1.456;2023-11-21T01:54:10;11.10;99.90
15656;DHT22;7928;43.614;1.456;2023-11-21T01:56:38;11.10;99.90
15656;DHT22;7928;43.614;1.456;2023-11-21T01:59:05;11.10;99.90
15656;DHT22;7928;43.614;1.456;2023-11-21T02:01:33;11.10;99.90
15656;DHT22;7928;43.614;1.456;2023-11-21T02:04:00;11.00;99.90
15656;DHT22;7928;43.614;1.456;2023-11-21T02:06:27;11.00;99.90
15656;DHT22;7928;43.614;1.456;2023-11-21T02:08:58;10.90;99.90
15656;DHT22;7928;43.614;1.456;2023-11-21T02:11:25;10.80;99.90
15656;DHT22;7928;43.614;1.456;2023-11-21T02:13:53;10.80;99.90
15656;DHT22;7928;43.614;1.456;2023-11-21T02:16:20;10.80;99.90
15656;DHT22;7928;43.614;1.456;2023-11-21T02:18:47;10.70;99.90
15656;DHT22;7928;43.614;1.456;2023-11-21T02:21:15;10.70;99.90
15656;DHT22;7928;43.614;1.456;2023-11-21T02:23:43;10.70;99.90
15656;DHT22;7928;43.614;1.456;2023-11-21T02:26:12;10.70;99.90
15656;DHT22;7928;43.614;1.456;2023-11-21T02:28:39;10.70;99.90
15656;DHT22;7928;43.614;1.456;2023-11-21T02:31:06;10.80;99.90
15656;DHT22;7928;43.614;1.456;2023-11-21T02:33:33;10.70;99.90
15656;DHT22;7928;43.614;1.456;2023-11-21T02:36:00;10.70;99.90
15656;DHT22;7928;43.614;1.456;2023-11-21T02:38:27;10.70;99.90
15656;DHT22;7928;43.614;1.456;2023-11-21T02:40:57;10.70;99.90
15656;DHT22;7928;43.614;1.456;2023-11-21T02:43:24;10.70;99.90
15656;DHT22;7928;43.614;1.456;2023-11-21T02:45:51;10.60;99.90
15656;DHT22;7928;43.614;1.456;2023-11-21T02:48:18;10.60;99.90
15656;DHT22;7928;43.614;1.456;2023-11-21T02:50:45;10.60;99.90
15656;DHT22;7928;43.614;1.456;2023-11-21T02:53:12;10.60;99.90
15656;DHT22;7928;43.614;1.456;2023-11-21T02:55:40;10.60;99.90
15656;DHT22;7928;43.614;1.456;2023-11-21T02:58:08;10.60;99.90
15656;DHT22;7928;43.614;1.456;2023-11-21T03:00:35;10.60;99.90
15656;DHT22;7928;43.614;1.456;2023-11-21T03:03:02;10.50;99.90
15656;DHT22;7928;43.614;1.456;2023-11-21T03:05:29;10.50;99.90
15656;DHT22;7928;43.614;1.456;2023-11-21T03:07:56;10.40;99.90
15656;DHT22;7928;43.614;1.456;2023-11-21T03:10:23;10.40;99.90
15656;DHT22;7928;43.614;1.456;2023-11-21T03:12:50;10.40;99.90
15656;DHT22;7928;43.614;1.456;2023-11-21T03:15:19;10.40;99.90
15656;DHT22;7928;43.614;1.456;2023-11-21T03:17:46;10.50;99.90
15656;DHT22;7928;43.614;1.456;2023-11-21T03:20:14;10.50;99.90
15656;DHT22;7928;43.614;1.456;2023-11-21T03:22:42;10.50;99.90
15656;DHT22;7928;43.614;1.456;2023-11-21T03:25:09;10.50;99.90
15656;DHT22;7928;43.614;1.456;2023-11-21T03:27:37;10.40;99.90
15656;DHT22;7928;43.614;1.456;2023-11-21T03:30:05;10.40;99.90
15656;DHT22;7928;43.614;1.456;2023-11-21T03:32:35;10.40;99.90
15656;DHT22;7928;43.614;1.456;2023-11-21T03:35:02;10.40;99.90
15656;DHT22;7928;43.614;1.456;2023-11-21T03:37:29;10.40;99.90
15656;DHT22;7928;43.614;1.456;2023-11-21T03:39:56;10.40;99.90
15656;DHT22;7928;43.614;1.456;2023-11-21T03:42:23;10.40;99.90
15656;DHT22;7928;43.614;1.456;2023-11-21T03:44:51;10.40;99.90
15656;DHT22;7928;43.614;1.456;2023-11-21T03:47:18;10.40;99.90
15656;DHT22;7928;43.614;1.456;2023-11-21T03:49:47;10.40;99.90
15656;DHT22;7928;43.614;1.456;2023-11-21T03:52:14;10.40;99.90
15656;DHT22;7928;43.614;1.456;2023-11-21T03:54:41;10.40;99.90
15656;DHT22;7928;43.614;1.456;2023-11-21T03:57:09;10.40;99.90
15656;DHT22;7928;43.614;1.456;2023-11-21T03:59:36;10.40;99.90
15656;DHT22;7928;43.614;1.456;2023-11-21T04:02:03;10.40;99.90
15656;DHT22;7928;43.614;1.456;2023-11-21T04:04:30;10.40;99.90
15656;DHT22;7928;43.614;1.456;2023-11-21T04:06:58;10.50;99.90
15656;DHT22;7928;43.614;1.456;2023-11-21T04:09:25;10.50;99.90
15656;DHT22;7928;43.614;1.456;2023-11-21T04:11:52;10.40;99.90
15656;DHT22;7928;43.614;1.456;2023-11-21T04:14:20;10.40;99.90
15656;DHT22;7928;43.614;1.456;2023-11-21T04:16:46;10.40;99.90
15656;DHT22;7928;43.614;1.456;2023-11-21T04:19:14;10.30;99.90
15656;DHT22;7928;43.614;1.456;2023-11-21T04:21:41;10.30;99.90
15656;DHT22;7928;43.614;1.456;2023-11-21T04:24:10;10.30;99.90
15656;DHT22;7928;43.614;1.456;2023-11-21T04:26:37;10.30;99.90
15656;DHT22;7928;43.614;1.456;2023-11-21T04:29:04;10.30;99.90
15656;DHT22;7928;43.614;1.456;2023-11-21T04:31:31;10.30;99.90
15656;DHT22;7928;43.614;1.456;2023-11-21T04:33:58;10.20;99.90
15656;DHT22;7928;43.614;1.456;2023-11-21T04:36:25;10.20;99.90
15656;DHT22;7928;43.614;1.456;2023-11-21T04:38:52;10.20;99.90
15656;DHT22;7928;43.614;1.456;2023-11-21T04:41:20;10.20;99.90
15656;DHT22;7928;43.614;1.456;2023-11-21T04:43:48;10.20;99.90
15656;DHT22;7928;43.614;1.456;2023-11-21T04:46:15;10.20;99.90
15656;DHT22;7928;43.614;1.456;2023-11-21T04:48:42;10.20;99.90
15656;DHT22;7928;43.614;1.456;2023-11-21T04:51:09;10.20;99.90
15656;DHT22;7928;43.614;1.456;2023-11-21T04:53:37;10.20;99.90
15656;DHT22;7928;43.614;1.456;2023-11-21T04:56:05;10.20;99.90
15656;DHT22;7928;43.614;1.456;2023-11-21T04:58:33;10.30;99.90
15656;DHT22;7928;43.614;1.456;2023-11-21T05:01:01;10.30;99.90
15656;DHT22;7928;43.614;1.456;2023-11-21T05:03:28;10.30;99.90
15656;DHT22;7928;43.614;1.456;2023-11-21T05:05:55;10.30;99.90
15656;DHT22;7928;43.614;1.456;2023-11-21T05:08:22;10.30;99.90
15656;DHT22;7928;43.614;1.456;2023-11-21T05:10:49;10.40;99.90
15656;DHT22;7928;43.614;1.456;2023-11-21T05:13:17;10.40;99.90
15656;DHT22;7928;43.614;1.456;2023-11-21T05:15:45;10.40;99.90
15656;DHT22;7928;43.614;1.456;2023-11-21T05:18:12;10.40;99.90
15656;DHT22;7928;43.614;1.456;2023-11-21T05:20:39;10.50;99.90
15656;DHT22;7928;43.614;1.456;2023-11-21T05:23:07;10.50;99.90
15656;DHT22;7928;43.614;1.456;2023-11-21T05:25:34;10.50;99.90
15656;DHT22;7928;43.614;1.456;2023-11-21T05:28:01;10.60;99.90
15656;DHT22;7928;43.614;1.456;2023-11-21T05:30:28;10.60;99.90
15656;DHT22;7928;43.614;1.456;2023-11-21T05:32:56;10.60;99.90
15656;DHT22;7928;43.614;1.456;2023-11-21T05:35:23;10.60;99.90
15656;DHT22;7928;43.614;1.456;2023-11-21T05:37:50;10.60;99.90
15656;DHT22;7928;43.614;1.456;2023-11-21T05:40:16;10.60;99.90
15656;DHT22;7928;43.614;1.456;2023-11-21T05:42:44;10.60;99.90
15656;DHT22;7928;43.614;1.456;2023-11-21T05:45:11;10.70;99.90
15656;DHT22;7928;43.614;1.456;2023-11-21T05:47:39;10.70;99.90
15656;DHT22;7928;43.614;1.456;2023-11-21T05:50:09;10.70;99.90
15656;DHT22;7928;43.614;1.456;2023-11-21T05:52:37;10.70;99.90
15656;DHT22;7928;43.614;1.456;2023-11-21T05:55:05;10.80;99.90
15656;DHT22;7928;43.614;1.456;2023-11-21T05:57:33;10.80;99.90
15656;DHT22;7928;43.614;1.456;2023-11-21T06:00:02;10.80;99.90
15656;DHT22;7928;43.614;1.456;2023-11-21T06:02:37;10.80;99.90
15656;DHT22;7928;43.614;1.456;2023-11-21T06:05:05;10.80;99.90
15656;DHT22;7928;43.614;1.456;2023-11-21T06:07:33;10.90;99.90
15656;DHT22;7928;43.614;1.456;2023-11-21T06:10:01;10.90;99.90
15656;DHT22;7928;43.614;1.456;2023-11-21T06:12:31;10.90;99.90
15656;DHT22;7928;43.614;1.456;2023-11-21T06:15:01;10.90;99.90
15656;DHT22;7928;43.614;1.456;2023-11-21T06:17:30;10.90;99.90
15656;DHT22;7928;43.614;1.456;2023-11-21T06:19:57;10.80;99.90
15656;DHT22;7928;43.614;1.456;2023-11-21T06:22:24;10.80;99.90
15656;DHT22;7928;43.614;1.456;2023-11-21T06:24:52;10.80;99.90
15656;DHT22;7928;43.614;1.456;2023-11-21T06:27:19;10.80;99.90
15656;DHT22;7928;43.614;1.456;2023-11-21T06:29:46;10.80;99.90
15656;DHT22;7928;43.614;1.456;2023-11-21T06:32:13;10.80;99.90
15656;DHT22;7928;43.614;1.456;2023-11-21T06:34:42;10.80;99.90
15656;DHT22;7928;43.614;1.456;2023-11-21T06:37:09;10.80;99.90
15656;DHT22;7928;43.614;1.456;2023-11-21T06:39:36;10.80;99.90
15656;DHT22;7928;43.614;1.456;2023-11-21T06:42:05;10.80;99.90
15656;DHT22;7928;43.614;1.456;2023-11-21T06:44:32;10.80;99.90
15656;DHT22;7928;43.614;1.456;2023-11-21T06:47:01;10.80;99.90
15656;DHT22;7928;43.614;1.456;2023-11-21T06:49:28;10.80;99.90
15656;DHT22;7928;43.614;1.456;2023-11-21T06:51:55;10.80;99.90
15656;DHT22;7928;43.614;1.456;2023-11-21T06:54:22;10.80;99.90
15656;DHT22;7928;43.614;1.456;2023-11-21T06:56:49;10.80;99.90
15656;DHT22;7928;43.614;1.456;2023-11-21T06:59:17;10.80;99.90
15656;DHT22;7928;43.614;1.456;2023-11-21T07:01:44;10.80;99.90
15656;DHT22;7928;43.614;1.456;2023-11-21T07:04:11;10.80;99.90
15656;DHT22;7928;43.614;1.456;2023-11-21T07:06:38;10.80;99.90
15656;DHT22;7928;43.614;1.456;2023-11-21T07:09:05;10.80;99.90
15656;DHT22;7928;43.614;1.456;2023-11-21T07:11:34;10.80;99.90
15656;DHT22;7928;43.614;1.456;2023-11-21T07:14:01;10.80;99.90
15656;DHT22;7928;43.614;1.456;2023-11-21T07:16:34;10.80;99.90
15656;DHT22;7928;43.614;1.456;2023-11-21T07:19:03;10.90;99.90
15656;DHT22;7928;43.614;1.456;2023-11-21T07:21:31;10.80;99.90
15656;DHT22;7928;43.614;1.456;2023-11-21T07:23:59;10.90;99.90
15656;DHT22;7928;43.614;1.456;2023-11-21T07:26:26;10.80;99.90
15656;DHT22;7928;43.614;1.456;2023-11-21T07:28:53;10.80;99.90
15656;DHT22;7928;43.614;1.456;2023-11-21T07:31:21;10.90;99.90
15656;DHT22;7928;43.614;1.456;2023-11-21T07:33:51;10.90;99.90
15656;DHT22;7928;43.614;1.456;2023-11-21T07:36:18;10.90;99.90
15656;DHT22;7928;43.614;1.456;2023-11-21T07:38:46;11.00;99.90
15656;DHT22;7928;43.614;1.456;2023-11-21T07:41:13;10.90;99.90
15656;DHT22;7928;43.614;1.456;2023-11-21T07:43:41;11.00;99.90
15656;DHT22;7928;43.614;1.456;2023-11-21T07:46:08;10.90;99.90
15656;DHT22;7928;43.614;1.456;2023-11-21T07:48:35;10.90;99.90
15656;DHT22;7928;43.614;1.456;2023-11-21T07:51:04;10.90;99.90
15656;DHT22;7928;43.614;1.456;2023-11-21T07:53:31;10.90;99.90
15656;DHT22;7928;43.614;1.456;2023-11-21T07:55:58;11.00;99.90
15656;DHT22;7928;43.614;1.456;2023-11-21T07:58:25;11.00;99.90
15656;DHT22;7928;43.614;1.456;2023-11-21T08:00:52;10.90;99.90
15656;DHT22;7928;43.614;1.456;2023-11-21T08:03:19;10.90;99.90
15656;DHT22;7928;43.614;1.456;2023-11-21T08:05:46;11.00;99.90
15656;DHT22;7928;43.614;1.456;2023-11-21T08:08:15;11.00;99.90
15656;DHT22;7928;43.614;1.456;2023-11-21T08:10:44;11.00;99.90
15656;DHT22;7928;43.614;1.456;2023-11-21T08:13:13;11.10;99.90
15656;DHT22;7928;43.614;1.456;2023-11-21T08:15:42;11.10;99.90
15656;DHT22;7928;43.614;1.456;2023-11-21T08:18:11;11.20;99.90
15656;DHT22;7928;43.614;1.456;2023-11-21T08:20:40;11.20;99.90
15656;DHT22;7928;43.614;1.456;2023-11-21T08:23:07;11.30;99.90
15656;DHT22;7928;43.614;1.456;2023-11-21T08:25:35;11.40;99.90
15656;DHT22;7928;43.614;1.456;2023-11-21T08:28:02;11.40;99.90
15656;DHT22;7928;43.614;1.456;2023-11-21T08:30:29;11.40;99.90
15656;DHT22;7928;43.614;1.456;2023-11-21T08:32:57;11.50;99.90
15656;DHT22;7928;43.614;1.456;2023-11-21T08:35:25;11.50;99.90
15656;DHT22;7928;43.614;1.456;2023-11-21T08:37:52;11.50;99.90
15656;DHT22;7928;43.614;1.456;2023-11-21T08:40:19;11.50;99.90
15656;DHT22;7928;43.614;1.456;2023-11-21T08:42:48;11.60;99.90
15656;DHT22;7928;43.614;1.456;2023-11-21T08:45:17;11.60;99.90
15656;DHT22;7928;43.614;1.456;2023-11-21T08:47:44;11.70;99.90
15656;DHT22;7928;43.614;1.456;2023-11-21T08:50:12;11.90;99.90
15656;DHT22;7928;43.614;1.456;2023-11-21T08:52:39;11.70;99.90
15656;DHT22;7928;43.614;1.456;2023-11-21T08:55:07;11.70;99.90
15656;DHT22;7928;43.614;1.456;2023-11-21T08:57:34;11.70;99.90
15656;DHT22;7928;43.614;1.456;2023-11-21T09:00:03;11.80;99.90
15656;DHT22;7928;43.614;1.456;2023-11-21T09:02:33;11.80;99.90
15656;DHT22;7928;43.614;1.456;2023-11-21T09:05:00;11.80;99.90
15656;DHT22;7928;43.614;1.456;2023-11-21T09:07:28;11.80;99.90
15656;DHT22;7928;43.614;1.456;2023-11-21T09:09:56;11.80;99.90
15656;DHT22;7928;43.614;1.456;2023-11-21T09:12:23;11.80;99.90
15656;DHT22;7928;43.614;1.456;2023-11-21T09:14:51;11.80;99.90
15656;DHT22;7928;43.614;1.456;2023-11-21T09:17:19;11.80;99.90
15656;DHT22;7928;43.614;1.456;2023-11-21T09:19:46;11.80;99.90
15656;DHT22;7928;43.614;1.456;2023-11-21T09:22:17;11.80;99.90
15656;DHT22;7928;43.614;1.456;2023-11-21T09:24:44;11.80;99.90
15656;DHT22;7928;43.614;1.456;2023-11-21T09:27:11;11.80;99.90
15656;DHT22;7928;43.614;1.456;2023-11-21T09:29:38;11.80;99.90
15656;DHT22;7928;43.614;1.456;2023-11-21T09:32:05;11.90;99.90
15656;DHT22;7928;43.614;1.456;2023-11-21T09:34:35;11.90;99.90
15656;DHT22;7928;43.614;1.456;2023-11-21T09:37:04;11.90;99.90
15656;DHT22;7928;43.614;1.456;2023-11-21T09:39:32;11.90;99.90
15656;DHT22;7928;43.614;1.456;2023-11-21T09:42:06;12.00;99.90
15656;DHT22;7928;43.614;1.456;2023-11-21T09:44:43;12.00;99.90
15656;DHT22;7928;43.614;1.456;2023-11-21T09:47:14;12.00;99.90
15656;DHT22;7928;43.614;1.456;2023-11-21T09:49:47;12.00;99.90
15656;DHT22;7928;43.614;1.456;2023-11-21T09:52:21;12.10;99.90
15656;DHT22;7928;43.614;1.456;2023-11-21T09:54:51;12.10;99.90
15656;DHT22;7928;43.614;1.456;2023-11-21T09:57:20;12.20;99.90
15656;DHT22;7928;43.614;1.456;2023-11-21T09:59:51;12.20;99.90
15656;DHT22;7928;43.614;1.456;2023-11-21T10:02:22;12.30;99.90
15656;DHT22;7928;43.614;1.456;2023-11-21T10:04:53;12.30;99.90
15656;DHT22;7928;43.614;1.456;2023-11-21T10:07:20;12.40;99.90
15656;DHT22;7928;43.614;1.456;2023-11-21T10:09:48;12.40;99.90
15656;DHT22;7928;43.614;1.456;2023-11-21T10:12:15;12.40;99.90
15656;DHT22;7928;43.614;1.456;2023-11-21T10:14:43;12.40;99.90
15656;DHT22;7928;43.614;1.456;2023-11-21T10:17:14;12.40;99.90
15656;DHT22;7928;43.614;1.456;2023-11-21T10:19:46;12.50;99.90
15656;DHT22;7928;43.614;1.456;2023-11-21T10:22:15;12.50;99.90
15656;DHT22;7928;43.614;1.456;2023-11-21T10:24:43;12.60;99.90
15656;DHT22;7928;43.614;1.456;2023-11-21T10:27:10;12.70;99.90
15656;DHT22;7928;43.614;1.456;2023-11-21T10:29:36;12.80;99.90
15656;DHT22;7928;43.614;1.456;2023-11-21T10:32:05;12.90;99.90
15656;DHT22;7928;43.614;1.456;2023-11-21T10:34:33;13.10;99.90
15656;DHT22;7928;43.614;1.456;2023-11-21T10:37:11;13.30;99.90
15656;DHT22;7928;43.614;1.456;2023-11-21T10:39:40;13.30;99.90
15656;DHT22;7928;43.614;1.456;2023-11-21T10:42:09;13.30;99.90
15656;DHT22;7928;43.614;1.456;2023-11-21T10:44:36;13.20;99.90
15656;DHT22;7928;43.614;1.456;2023-11-21T10:47:03;13.20;99.90
15656;DHT22;7928;43.614;1.456;2023-11-21T10:49:30;13.10;99.90
15656;DHT22;7928;43.614;1.456;2023-11-21T10:51:57;13.00;99.90
15656;DHT22;7928;43.614;1.456;2023-11-21T10:54:25;12.90;99.90
15656;DHT22;7928;43.614;1.456;2023-11-21T10:56:57;12.90;99.90
15656;DHT22;7928;43.614;1.456;2023-11-21T10:59:27;12.90;99.90
15656;DHT22;7928;43.614;1.456;2023-11-21T11:01:57;12.80;99.90
15656;DHT22;7928;43.614;1.456;2023-11-21T11:04:27;12.80;99.90
15656;DHT22;7928;43.614;1.456;2023-11-21T11:06:56;12.80;99.90
15656;DHT22;7928;43.614;1.456;2023-11-21T11:09:23;12.80;99.90
15656;DHT22;7928;43.614;1.456;2023-11-21T11:11:51;12.90;99.90
15656;DHT22;7928;43.614;1.456;2023-11-21T11:14:21;12.80;99.90
15656;DHT22;7928;43.614;1.456;2023-11-21T11:16:53;12.70;99.90
15656;DHT22;7928;43.614;1.456;2023-11-21T11:19:20;12.70;99.90
15656;DHT22;7928;43.614;1.456;2023-11-21T11:21:53;12.70;99.90
15656;DHT22;7928;43.614;1.456;2023-11-21T11:24:49;12.60;99.90
15656;DHT22;7928;43.614;1.456;2023-11-21T11:27:29;12.60;99.90
15656;DHT22;7928;43.614;1.456;2023-11-21T11:30:08;12.60;99.90
15656;DHT22;7928;43.614;1.456;2023-11-21T11:32:54;12.50;99.90
15656;DHT22;7928;43.614;1.456;2023-11-21T11:35:42;12.80;99.90
15656;DHT22;7928;43.614;1.456;2023-11-21T11:38:14;13.00;99.90
15656;DHT22;7928;43.614;1.456;2023-11-21T11:40:41;13.10;99.90
15656;DHT22;7928;43.614;1.456;2023-11-21T11:43:08;13.20;99.90
15656;DHT22;7928;43.614;1.456;2023-11-21T11:45:35;13.30;99.90
15656;DHT22;7928;43.614;1.456;2023-11-21T11:48:06;13.40;99.90
15656;DHT22;7928;43.614;1.456;2023-11-21T11:50:35;13.50;99.90
15656;DHT22;7928;43.614;1.456;2023-11-21T11:53:15;13.50;99.90
15656;DHT22;7928;43.614;1.456;2023-11-21T11:55:43;13.60;99.90
15656;DHT22;7928;43.614;1.456;2023-11-21T11:58:11;13.70;99.90
15656;DHT22;7928;43.614;1.456;2023-11-21T12:00:37;13.70;99.90
15656;DHT22;7928;43.614;1.456;2023-11-21T12:03:07;13.70;99.90
15656;DHT22;7928;43.614;1.456;2023-11-21T12:05:36;13.80;99.90
15656;DHT22;7928;43.614;1.456;2023-11-21T12:08:06;13.80;99.90
15656;DHT22;7928;43.614;1.456;2023-11-21T12:10:34;13.90;99.90
15656;DHT22;7928;43.614;1.456;2023-11-21T12:13:02;14.10;99.90
15656;DHT22;7928;43.614;1.456;2023-11-21T12:15:31;14.20;99.90
15656;DHT22;7928;43.614;1.456;2023-11-21T12:17:58;14.10;99.90
15656;DHT22;7928;43.614;1.456;2023-11-21T12:20:26;14.10;99.90
15656;DHT22;7928;43.614;1.456;2023-11-21T12:22:56;14.00;99.90
15656;DHT22;7928;43.614;1.456;2023-11-21T12:25:25;13.90;99.90
15656;DHT22;7928;43.614;1.456;2023-11-21T12:27:55;13.90;99.90
15656;DHT22;7928;43.614;1.456;2023-11-21T12:30:24;13.90;99.90
15656;DHT22;7928;43.614;1.456;2023-11-21T12:32:54;13.80;99.90
15656;DHT22;7928;43.614;1.456;2023-11-21T12:35:23;13.70;99.90
15656;DHT22;7928;43.614;1.456;2023-11-21T12:37:51;13.50;99.90
15656;DHT22;7928;43.614;1.456;2023-11-21T12:40:20;13.40;99.90
15656;DHT22;7928;43.614;1.456;2023-11-21T12:42:51;13.40;99.90
15656;DHT22;7928;43.614;1.456;2023-11-21T12:45:20;13.40;99.90
15656;DHT22;7928;43.614;1.456;2023-11-21T12:47:48;13.40;99.90
15656;DHT22;7928;43.614;1.456;2023-11-21T12:50:18;13.30;99.90
15656;DHT22;7928;43.614;1.456;2023-11-21T12:52:50;13.30;99.90
15656;DHT22;7928;43.614;1.456;2023-11-21T12:55:21;13.30;99.90
15656;DHT22;7928;43.614;1.456;2023-11-21T12:57:49;13.40;99.90
15656;DHT22;7928;43.614;1.456;2023-11-21T13:00:20;13.50;99.90
15656;DHT22;7928;43.614;1.456;2023-11-21T13:02:54;13.50;99.90
15656;DHT22;7928;43.614;1.456;2023-11-21T13:05:29;13.50;99.90
15656;DHT22;7928;43.614;1.456;2023-11-21T13:07:58;13.50;99.90
15656;DHT22;7928;43.614;1.456;2023-11-21T13:10:30;13.60;99.90
15656;DHT22;7928;43.614;1.456;2023-11-21T13:12:58;13.80;99.90
15656;DHT22;7928;43.614;1.456;2023-11-21T13:15:26;13.80;99.90
15656;DHT22;7928;43.614;1.456;2023-11-21T13:17:53;13.70;99.90
15656;DHT22;7928;43.614;1.456;2023-11-21T13:20:22;13.60;99.90
15656;DHT22;7928;43.614;1.456;2023-11-21T13:22:50;13.40;99.90
15656;DHT22;7928;43.614;1.456;2023-11-21T13:25:20;13.30;99.90
15656;DHT22;7928;43.614;1.456;2023-11-21T13:27:48;13.30;99.90
15656;DHT22;7928;43.614;1.456;2023-11-21T13:30:17;13.30;99.90
15656;DHT22;7928;43.614;1.456;2023-11-21T13:32:48;13.30;99.90
15656;DHT22;7928;43.614;1.456;2023-11-21T13:35:17;13.30;99.90
15656;DHT22;7928;43.614;1.456;2023-11-21T13:37:50;13.40;99.90
15656;DHT22;7928;43.614;1.456;2023-11-21T13:40:21;13.50;99.90
15656;DHT22;7928;43.614;1.456;2023-11-21T13:42:53;13.50;99.90
15656;DHT22;7928;43.614;1.456;2023-11-21T13:45:21;13.70;99.90
15656;DHT22;7928;43.614;1.456;2023-11-21T13:47:50;13.70;99.90
15656;DHT22;7928;43.614;1.456;2023-11-21T13:50:23;13.80;99.90
15656;DHT22;7928;43.614;1.456;2023-11-21T13:52:54;14.00;99.90
15656;DHT22;7928;43.614;1.456;2023-11-21T13:55:21;14.00;99.90
15656;DHT22;7928;43.614;1.456;2023-11-21T13:57:52;14.00;99.90
15656;DHT22;7928;43.614;1.456;2023-11-21T14:00:19;13.90;99.90
15656;DHT22;7928;43.614;1.456;2023-11-21T14:03:04;13.80;99.90
15656;DHT22;7928;43.614;1.456;2023-11-21T14:05:36;13.90;99.90
15656;DHT22;7928;43.614;1.456;2023-11-21T14:08:05;13.80;99.90
15656;DHT22;7928;43.614;1.456;2023-11-21T14:10:32;13.70;99.90
15656;DHT22;7928;43.614;1.456;2023-11-21T14:13:07;13.60;99.90
15656;DHT22;7928;43.614;1.456;2023-11-21T14:15:36;13.50;99.90
15656;DHT22;7928;43.614;1.456;2023-11-21T14:18:07;13.40;99.90
15656;DHT22;7928;43.614;1.456;2023-11-21T14:20:36;13.50;99.90
15656;DHT22;7928;43.614;1.456;2023-11-21T14:23:03;13.40;99.90
15656;DHT22;7928;43.614;1.456;2023-11-21T14:25:32;13.30;99.90
15656;DHT22;7928;43.614;1.456;2023-11-21T14:28:00;13.30;99.90
15656;DHT22;7928;43.614;1.456;2023-11-21T14:30:30;13.30;99.90
15656;DHT22;7928;43.614;1.456;2023-11-21T14:32:58;13.30;99.90
15656;DHT22;7928;43.614;1.456;2023-11-21T14:35:26;13.30;99.90
15656;DHT22;7928;43.614;1.456;2023-11-21T14:37:55;13.30;99.90
15656;DHT22;7928;43.614;1.456;2023-11-21T14:40:24;13.40;99.90
15656;DHT22;7928;43.614;1.456;2023-11-21T14:42:51;13.40;99.90
15656;DHT22;7928;43.614;1.456;2023-11-21T14:45:20;13.40;99.90
15656;DHT22;7928;43.614;1.456;2023-11-21T14:47:49;13.40;99.90
15656;DHT22;7928;43.614;1.456;2023-11-21T14:50:24;13.30;99.90
15656;DHT22;7928;43.614;1.456;2023-11-21T14:53:12;13.40;99.90
15656;DHT22;7928;43.614;1.456;2023-11-21T14:55:38;13.30;99.90
15656;DHT22;7928;43.614;1.456;2023-11-21T14:58:19;13.30;99.90
15656;DHT22;7928;43.614;1.456;2023-11-21T15:00:53;13.30;99.90
15656;DHT22;7928;43.614;1.456;2023-11-21T15:03:25;13.30;99.90
15656;DHT22;7928;43.614;1.456;2023-11-21T15:06:12;13.30;99.90
15656;DHT22;7928;43.614;1.456;2023-11-21T15:08:51;13.20;99.90
15656;DHT22;7928;43.614;1.456;2023-11-21T15:11:35;13.30;99.90
15656;DHT22;7928;43.614;1.456;2023-11-21T15:14:04;13.30;99.90
15656;DHT22;7928;43.614;1.456;2023-11-21T15:16:33;13.40;99.90
15656;DHT22;7928;43.614;1.456;2023-11-21T15:19:05;13.40;99.90
15656;DHT22;7928;43.614;1.456;2023-11-21T15:21:32;13.30;99.90
15656;DHT22;7928;43.614;1.456;2023-11-21T15:23:59;13.30;99.90
15656;DHT22;7928;43.614;1.456;2023-11-21T15:26:26;13.20;99.90
15656;DHT22;7928;43.614;1.456;2023-11-21T15:28:54;13.20;99.90
15656;DHT22;7928;43.614;1.456;2023-11-21T15:31:21;13.10;99.90
15656;DHT22;7928;43.614;1.456;2023-11-21T15:33:50;13.00;99.90
15656;DHT22;7928;43.614;1.456;2023-11-21T15:36:20;13.00;99.90
15656;DHT22;7928;43.614;1.456;2023-11-21T15:38:47;12.90;99.90
15656;DHT22;7928;43.614;1.456;2023-11-21T15:41:14;12.90;99.90
15656;DHT22;7928;43.614;1.456;2023-11-21T15:43:41;12.90;99.90
15656;DHT22;7928;43.614;1.456;2023-11-21T15:46:08;12.80;99.90
15656;DHT22;7928;43.614;1.456;2023-11-21T15:48:35;12.80;99.90
15656;DHT22;7928;43.614;1.456;2023-11-21T15:51:04;12.80;99.90
15656;DHT22;7928;43.614;1.456;2023-11-21T15:53:35;12.80;99.90